Terminal Aerodrome Forecast
Issued by NWS Twin Cities, MN

Home | Current Version | Previous Version | Text Only | Print | Product List | Glossary Off
Versions: 1 2 3 4 5 6 7 8 9 10 11 12 13 14

423
FTUS43 KMPX 241301 AAA
TAFEAU
TAF AMD
KEAU 241301Z 2413/2512 26005KT P6SM OVC004
      TEMPO 2413/2415 SCT004 BKN012
     FM241500 27008KT P6SM BKN018
     FM241600 29010KT P6SM SCT030
     FM250100 27005KT P6SM FEW250=

USA.gov is the U.S. government's official web portal to all federal, state and local government web resources and services.